sensor_id;sensor_type;location;lat;lon;timestamp;P1;durP1;ratioP1;P2;durP2;ratioP2
75550;SDS011;65071;53.082;18.218;2023-05-19T00:02:20;0.40;;;0.40;;
75550;SDS011;65071;53.082;18.218;2023-05-19T00:04:47;0.80;;;0.40;;
75550;SDS011;65071;53.082;18.218;2023-05-19T00:07:16;0.80;;;0.50;;
75550;SDS011;65071;53.082;18.218;2023-05-19T00:09:44;2.10;;;0.60;;
75550;SDS011;65071;53.082;18.218;2023-05-19T00:12:11;2.30;;;0.60;;
75550;SDS011;65071;53.082;18.218;2023-05-19T00:14:38;1.10;;;0.70;;
75550;SDS011;65071;53.082;18.218;2023-05-19T00:17:05;1.90;;;0.50;;
75550;SDS011;65071;53.082;18.218;2023-05-19T00:19:33;0.60;;;0.40;;
75550;SDS011;65071;53.082;18.218;2023-05-19T00:21:59;0.90;;;0.60;;
75550;SDS011;65071;53.082;18.218;2023-05-19T00:24:25;0.80;;;0.70;;
75550;SDS011;65071;53.082;18.218;2023-05-19T00:26:52;2.90;;;0.60;;
75550;SDS011;65071;53.082;18.218;2023-05-19T00:29:19;1.30;;;0.60;;
75550;SDS011;65071;53.082;18.218;2023-05-19T00:31:45;1.10;;;0.60;;
75550;SDS011;65071;53.082;18.218;2023-05-19T00:34:12;1.00;;;0.70;;
75550;SDS011;65071;53.082;18.218;2023-05-19T00:36:39;1.40;;;0.60;;
75550;SDS011;65071;53.082;18.218;2023-05-19T00:39:05;1.30;;;0.60;;
75550;SDS011;65071;53.082;18.218;2023-05-19T00:41:32;1.50;;;0.60;;
75550;SDS011;65071;53.082;18.218;2023-05-19T00:43:59;1.50;;;0.80;;
75550;SDS011;65071;53.082;18.218;2023-05-19T00:46:25;0.90;;;0.50;;
75550;SDS011;65071;53.082;18.218;2023-05-19T00:48:52;1.50;;;0.40;;
75550;SDS011;65071;53.082;18.218;2023-05-19T00:51:18;1.80;;;0.80;;
75550;SDS011;65071;53.082;18.218;2023-05-19T00:53:45;2.30;;;0.60;;
75550;SDS011;65071;53.082;18.218;2023-05-19T00:56:14;2.00;;;0.70;;
75550;SDS011;65071;53.082;18.218;2023-05-19T00:58:42;1.50;;;0.80;;
75550;SDS011;65071;53.082;18.218;2023-05-19T01:01:09;1.00;;;0.60;;
75550;SDS011;65071;53.082;18.218;2023-05-19T01:03:37;0.50;;;0.30;;
75550;SDS011;65071;53.082;18.218;2023-05-19T01:06:06;1.70;;;0.70;;
75550;SDS011;65071;53.082;18.218;2023-05-19T01:08:36;4.60;;;0.80;;
75550;SDS011;65071;53.082;18.218;2023-05-19T01:11:03;0.90;;;0.60;;
75550;SDS011;65071;53.082;18.218;2023-05-19T01:13:32;1.60;;;0.70;;
75550;SDS011;65071;53.082;18.218;2023-05-19T01:33:08;1.60;;;0.70;;
75550;SDS011;65071;53.082;18.218;2023-05-19T01:35:39;1.10;;;0.50;;
75550;SDS011;65071;53.082;18.218;2023-05-19T01:38:07;1.40;;;0.60;;
75550;SDS011;65071;53.082;18.218;2023-05-19T01:40:35;1.50;;;0.70;;
75550;SDS011;65071;53.082;18.218;2023-05-19T01:43:03;0.80;;;0.30;;
75550;SDS011;65071;53.082;18.218;2023-05-19T01:45:32;1.20;;;0.50;;
75550;SDS011;65071;53.082;18.218;2023-05-19T01:48:00;1.30;;;0.70;;
75550;SDS011;65071;53.082;18.218;2023-05-19T01:50:29;1.60;;;0.60;;
75550;SDS011;65071;53.082;18.218;2023-05-19T01:52:57;0.70;;;0.60;;
75550;SDS011;65071;53.082;18.218;2023-05-19T01:55:24;1.30;;;0.70;;
75550;SDS011;65071;53.082;18.218;2023-05-19T02:03:29;2.20;;;0.70;;
75550;SDS011;65071;53.082;18.218;2023-05-19T02:06:17;1.50;;;0.80;;
75550;SDS011;65071;53.082;18.218;2023-05-19T02:09:11;1.30;;;0.60;;
75550;SDS011;65071;53.082;18.218;2023-05-19T02:14:29;1.00;;;0.50;;
75550;SDS011;65071;53.082;18.218;2023-05-19T02:17:00;1.50;;;0.70;;
75550;SDS011;65071;53.082;18.218;2023-05-19T02:19:33;2.10;;;1.10;;
75550;SDS011;65071;53.082;18.218;2023-05-19T02:22:05;2.30;;;1.00;;
75550;SDS011;65071;53.082;18.218;2023-05-19T02:24:32;2.90;;;1.10;;
75550;SDS011;65071;53.082;18.218;2023-05-19T02:26:58;3.30;;;1.10;;
75550;SDS011;65071;53.082;18.218;2023-05-19T02:29:25;3.40;;;1.20;;
75550;SDS011;65071;53.082;18.218;2023-05-19T02:31:51;2.20;;;1.00;;
75550;SDS011;65071;53.082;18.218;2023-05-19T02:34:18;2.90;;;1.40;;
75550;SDS011;65071;53.082;18.218;2023-05-19T02:36:45;2.50;;;1.20;;
75550;SDS011;65071;53.082;18.218;2023-05-19T02:39:15;2.40;;;1.30;;
75550;SDS011;65071;53.082;18.218;2023-05-19T02:41:41;3.30;;;1.70;;
75550;SDS011;65071;53.082;18.218;2023-05-19T02:44:08;3.60;;;1.60;;
75550;SDS011;65071;53.082;18.218;2023-05-19T02:46:35;5.10;;;1.50;;
75550;SDS011;65071;53.082;18.218;2023-05-19T02:49:01;1.40;;;0.90;;
75550;SDS011;65071;53.082;18.218;2023-05-19T02:51:28;2.70;;;1.20;;
75550;SDS011;65071;53.082;18.218;2023-05-19T02:53:54;2.20;;;1.00;;
75550;SDS011;65071;53.082;18.218;2023-05-19T02:56:21;1.80;;;0.80;;
75550;SDS011;65071;53.082;18.218;2023-05-19T02:58:47;2.30;;;1.30;;
75550;SDS011;65071;53.082;18.218;2023-05-19T03:01:14;3.60;;;1.00;;
75550;SDS011;65071;53.082;18.218;2023-05-19T03:03:41;3.20;;;0.90;;
75550;SDS011;65071;53.082;18.218;2023-05-19T03:06:08;2.20;;;0.70;;
75550;SDS011;65071;53.082;18.218;2023-05-19T03:08:34;2.30;;;1.00;;
75550;SDS011;65071;53.082;18.218;2023-05-19T03:11:01;4.30;;;0.90;;
75550;SDS011;65071;53.082;18.218;2023-05-19T03:13:28;1.30;;;0.70;;
75550;SDS011;65071;53.082;18.218;2023-05-19T03:15:55;1.30;;;0.70;;
75550;SDS011;65071;53.082;18.218;2023-05-19T03:18:24;1.50;;;0.80;;
75550;SDS011;65071;53.082;18.218;2023-05-19T03:20:51;1.90;;;0.70;;
75550;SDS011;65071;53.082;18.218;2023-05-19T03:23:21;3.70;;;0.80;;
75550;SDS011;65071;53.082;18.218;2023-05-19T03:25:48;2.40;;;0.90;;
75550;SDS011;65071;53.082;18.218;2023-05-19T03:28:14;2.30;;;0.60;;
75550;SDS011;65071;53.082;18.218;2023-05-19T03:30:42;0.90;;;0.70;;
75550;SDS011;65071;53.082;18.218;2023-05-19T03:33:12;1.00;;;0.60;;
75550;SDS011;65071;53.082;18.218;2023-05-19T03:35:39;1.70;;;0.70;;
75550;SDS011;65071;53.082;18.218;2023-05-19T03:38:06;1.00;;;0.80;;
75550;SDS011;65071;53.082;18.218;2023-05-19T03:40:33;2.20;;;0.80;;
75550;SDS011;65071;53.082;18.218;2023-05-19T03:43:03;1.90;;;0.70;;
75550;SDS011;65071;53.082;18.218;2023-05-19T03:45:30;2.20;;;0.90;;
75550;SDS011;65071;53.082;18.218;2023-05-19T03:47:57;2.50;;;0.80;;
75550;SDS011;65071;53.082;18.218;2023-05-19T03:50:47;2.40;;;1.00;;
75550;SDS011;65071;53.082;18.218;2023-05-19T03:53:18;1.90;;;0.70;;
75550;SDS011;65071;53.082;18.218;2023-05-19T03:55:45;2.60;;;0.80;;
75550;SDS011;65071;53.082;18.218;2023-05-19T03:58:13;1.10;;;0.60;;
75550;SDS011;65071;53.082;18.218;2023-05-19T04:00:41;2.90;;;1.20;;
75550;SDS011;65071;53.082;18.218;2023-05-19T04:03:08;1.80;;;0.70;;
75550;SDS011;65071;53.082;18.218;2023-05-19T04:05:34;2.00;;;0.80;;
75550;SDS011;65071;53.082;18.218;2023-05-19T04:08:01;1.90;;;1.00;;
75550;SDS011;65071;53.082;18.218;2023-05-19T04:10:27;1.70;;;1.00;;
75550;SDS011;65071;53.082;18.218;2023-05-19T04:12:54;3.00;;;1.00;;
75550;SDS011;65071;53.082;18.218;2023-05-19T04:15:21;4.50;;;1.90;;
75550;SDS011;65071;53.082;18.218;2023-05-19T04:17:47;5.80;;;2.60;;
75550;SDS011;65071;53.082;18.218;2023-05-19T04:20:14;1.50;;;0.90;;
75550;SDS011;65071;53.082;18.218;2023-05-19T04:22:41;4.10;;;1.60;;
75550;SDS011;65071;53.082;18.218;2023-05-19T04:25:07;2.30;;;1.10;;
75550;SDS011;65071;53.082;18.218;2023-05-19T04:27:34;2.20;;;0.90;;
75550;SDS011;65071;53.082;18.218;2023-05-19T04:30:05;3.90;;;1.10;;
75550;SDS011;65071;53.082;18.218;2023-05-19T04:32:32;2.10;;;0.90;;
75550;SDS011;65071;53.082;18.218;2023-05-19T04:34:59;1.70;;;0.80;;
75550;SDS011;65071;53.082;18.218;2023-05-19T04:37:27;2.50;;;0.90;;
75550;SDS011;65071;53.082;18.218;2023-05-19T04:39:55;2.00;;;1.00;;
75550;SDS011;65071;53.082;18.218;2023-05-19T04:42:23;2.70;;;0.80;;
75550;SDS011;65071;53.082;18.218;2023-05-19T04:44:51;1.60;;;0.80;;
75550;SDS011;65071;53.082;18.218;2023-05-19T04:47:18;1.70;;;0.60;;
75550;SDS011;65071;53.082;18.218;2023-05-19T04:49:46;3.00;;;0.60;;
75550;SDS011;65071;53.082;18.218;2023-05-19T04:52:13;1.60;;;0.70;;
75550;SDS011;65071;53.082;18.218;2023-05-19T04:54:41;1.70;;;0.90;;
75550;SDS011;65071;53.082;18.218;2023-05-19T04:57:09;1.90;;;0.60;;
75550;SDS011;65071;53.082;18.218;2023-05-19T04:59:39;2.10;;;0.80;;
75550;SDS011;65071;53.082;18.218;2023-05-19T05:02:07;1.30;;;0.80;;
75550;SDS011;65071;53.082;18.218;2023-05-19T05:04:34;1.60;;;0.80;;
75550;SDS011;65071;53.082;18.218;2023-05-19T05:07:01;1.20;;;0.70;;
75550;SDS011;65071;53.082;18.218;2023-05-19T05:09:28;2.10;;;0.80;;
75550;SDS011;65071;53.082;18.218;2023-05-19T05:11:56;2.50;;;0.90;;
75550;SDS011;65071;53.082;18.218;2023-05-19T05:14:24;0.80;;;0.70;;
75550;SDS011;65071;53.082;18.218;2023-05-19T05:16:51;1.80;;;0.70;;
75550;SDS011;65071;53.082;18.218;2023-05-19T05:19:21;1.40;;;0.50;;
75550;SDS011;65071;53.082;18.218;2023-05-19T05:21:49;1.50;;;0.80;;
75550;SDS011;65071;53.082;18.218;2023-05-19T05:24:19;2.20;;;0.90;;
75550;SDS011;65071;53.082;18.218;2023-05-19T05:26:50;1.90;;;0.90;;
75550;SDS011;65071;53.082;18.218;2023-05-19T05:29:18;1.80;;;1.00;;
75550;SDS011;65071;53.082;18.218;2023-05-19T05:31:45;1.60;;;0.70;;
75550;SDS011;65071;53.082;18.218;2023-05-19T05:34:12;1.10;;;0.60;;
75550;SDS011;65071;53.082;18.218;2023-05-19T05:36:39;2.20;;;0.90;;
75550;SDS011;65071;53.082;18.218;2023-05-19T05:39:06;2.20;;;0.80;;
75550;SDS011;65071;53.082;18.218;2023-05-19T05:41:34;1.40;;;1.00;;
75550;SDS011;65071;53.082;18.218;2023-05-19T05:44:03;1.70;;;0.90;;
75550;SDS011;65071;53.082;18.218;2023-05-19T05:46:31;1.90;;;0.80;;
75550;SDS011;65071;53.082;18.218;2023-05-19T05:48:58;1.70;;;1.00;;
75550;SDS011;65071;53.082;18.218;2023-05-19T05:51:24;2.50;;;0.90;;
75550;SDS011;65071;53.082;18.218;2023-05-19T05:53:52;2.30;;;0.90;;
75550;SDS011;65071;53.082;18.218;2023-05-19T05:56:24;1.30;;;0.90;;
75550;SDS011;65071;53.082;18.218;2023-05-19T05:59:01;2.60;;;0.80;;
75550;SDS011;65071;53.082;18.218;2023-05-19T06:01:31;1.90;;;1.10;;
75550;SDS011;65071;53.082;18.218;2023-05-19T06:04:02;2.70;;;1.30;;
75550;SDS011;65071;53.082;18.218;2023-05-19T06:10:14;2.30;;;1.10;;
75550;SDS011;65071;53.082;18.218;2023-05-19T06:16:30;2.20;;;1.10;;
75550;SDS011;65071;53.082;18.218;2023-05-19T06:29:48;3.80;;;1.50;;
75550;SDS011;65071;53.082;18.218;2023-05-19T06:32:47;3.00;;;0.90;;
75550;SDS011;65071;53.082;18.218;2023-05-19T06:35:14;1.80;;;0.90;;
75550;SDS011;65071;53.082;18.218;2023-05-19T06:37:41;1.30;;;1.00;;
75550;SDS011;65071;53.082;18.218;2023-05-19T06:40:08;2.30;;;1.00;;
75550;SDS011;65071;53.082;18.218;2023-05-19T06:42:36;3.30;;;1.80;;
75550;SDS011;65071;53.082;18.218;2023-05-19T06:45:25;2.10;;;1.20;;
75550;SDS011;65071;53.082;18.218;2023-05-19T06:47:54;2.20;;;1.10;;
75550;SDS011;65071;53.082;18.218;2023-05-19T06:50:24;3.00;;;1.10;;
75550;SDS011;65071;53.082;18.218;2023-05-19T06:52:51;3.30;;;1.30;;
75550;SDS011;65071;53.082;18.218;2023-05-19T06:55:18;2.20;;;1.20;;
75550;SDS011;65071;53.082;18.218;2023-05-19T06:57:45;1.90;;;1.10;;
75550;SDS011;65071;53.082;18.218;2023-05-19T07:00:12;2.50;;;1.10;;
75550;SDS011;65071;53.082;18.218;2023-05-19T07:02:40;2.70;;;1.10;;
75550;SDS011;65071;53.082;18.218;2023-05-19T07:05:08;1.10;;;0.80;;
75550;SDS011;65071;53.082;18.218;2023-05-19T07:07:35;2.50;;;1.00;;
75550;SDS011;65071;53.082;18.218;2023-05-19T07:10:02;4.10;;;1.20;;
75550;SDS011;65071;53.082;18.218;2023-05-19T07:12:29;4.70;;;1.00;;
75550;SDS011;65071;53.082;18.218;2023-05-19T07:14:56;2.50;;;1.00;;
75550;SDS011;65071;53.082;18.218;2023-05-19T07:17:23;2.90;;;1.20;;
75550;SDS011;65071;53.082;18.218;2023-05-19T07:19:50;2.70;;;1.30;;
75550;SDS011;65071;53.082;18.218;2023-05-19T07:22:16;1.90;;;1.10;;
75550;SDS011;65071;53.082;18.218;2023-05-19T07:24:44;3.20;;;1.20;;
75550;SDS011;65071;53.082;18.218;2023-05-19T07:27:10;1.90;;;0.90;;
75550;SDS011;65071;53.082;18.218;2023-05-19T07:29:37;1.50;;;0.90;;
75550;SDS011;65071;53.082;18.218;2023-05-19T07:32:03;4.50;;;1.10;;
75550;SDS011;65071;53.082;18.218;2023-05-19T07:34:31;2.00;;;1.00;;
75550;SDS011;65071;53.082;18.218;2023-05-19T07:36:57;2.20;;;0.90;;
75550;SDS011;65071;53.082;18.218;2023-05-19T07:39:24;2.60;;;0.90;;
75550;SDS011;65071;53.082;18.218;2023-05-19T07:41:54;1.60;;;1.00;;
75550;SDS011;65071;53.082;18.218;2023-05-19T07:44:21;2.20;;;1.10;;
75550;SDS011;65071;53.082;18.218;2023-05-19T07:46:49;1.90;;;1.00;;
75550;SDS011;65071;53.082;18.218;2023-05-19T07:49:16;2.90;;;1.10;;
75550;SDS011;65071;53.082;18.218;2023-05-19T07:51:42;2.60;;;1.00;;
75550;SDS011;65071;53.082;18.218;2023-05-19T07:54:09;3.30;;;1.30;;
75550;SDS011;65071;53.082;18.218;2023-05-19T07:56:36;2.20;;;0.90;;
75550;SDS011;65071;53.082;18.218;2023-05-19T07:59:03;1.60;;;0.80;;
75550;SDS011;65071;53.082;18.218;2023-05-19T08:01:30;2.50;;;1.30;;
75550;SDS011;65071;53.082;18.218;2023-05-19T08:03:57;1.00;;;0.70;;
75550;SDS011;65071;53.082;18.218;2023-05-19T08:06:24;2.40;;;1.10;;
75550;SDS011;65071;53.082;18.218;2023-05-19T08:08:50;2.60;;;1.10;;
75550;SDS011;65071;53.082;18.218;2023-05-19T08:11:20;2.60;;;1.70;;
75550;SDS011;65071;53.082;18.218;2023-05-19T08:13:47;2.10;;;1.20;;
75550;SDS011;65071;53.082;18.218;2023-05-19T08:16:14;3.70;;;1.40;;
75550;SDS011;65071;53.082;18.218;2023-05-19T08:18:41;4.00;;;1.60;;
75550;SDS011;65071;53.082;18.218;2023-05-19T08:21:07;2.30;;;1.40;;
75550;SDS011;65071;53.082;18.218;2023-05-19T08:23:34;1.50;;;1.00;;
75550;SDS011;65071;53.082;18.218;2023-05-19T08:26:02;3.20;;;1.30;;
75550;SDS011;65071;53.082;18.218;2023-05-19T08:28:29;3.10;;;1.50;;
75550;SDS011;65071;53.082;18.218;2023-05-19T08:30:55;3.60;;;1.50;;
75550;SDS011;65071;53.082;18.218;2023-05-19T08:33:23;3.00;;;1.40;;
75550;SDS011;65071;53.082;18.218;2023-05-19T08:35:49;3.00;;;1.30;;
75550;SDS011;65071;53.082;18.218;2023-05-19T08:38:16;3.80;;;1.50;;
75550;SDS011;65071;53.082;18.218;2023-05-19T08:40:44;3.60;;;1.50;;
75550;SDS011;65071;53.082;18.218;2023-05-19T08:43:12;2.60;;;1.40;;
75550;SDS011;65071;53.082;18.218;2023-05-19T08:45:42;2.70;;;1.30;;
75550;SDS011;65071;53.082;18.218;2023-05-19T08:48:13;2.70;;;1.50;;
75550;SDS011;65071;53.082;18.218;2023-05-19T08:50:44;2.60;;;1.40;;
75550;SDS011;65071;53.082;18.218;2023-05-19T08:53:19;4.60;;;1.50;;
75550;SDS011;65071;53.082;18.218;2023-05-19T08:58:40;1.70;;;1.20;;
75550;SDS011;65071;53.082;18.218;2023-05-19T09:01:12;4.60;;;1.60;;
75550;SDS011;65071;53.082;18.218;2023-05-19T09:03:45;2.60;;;1.40;;
75550;SDS011;65071;53.082;18.218;2023-05-19T09:06:14;3.20;;;1.60;;
75550;SDS011;65071;53.082;18.218;2023-05-19T09:08:41;3.50;;;1.60;;
75550;SDS011;65071;53.082;18.218;2023-05-19T09:11:09;2.80;;;1.60;;
75550;SDS011;65071;53.082;18.218;2023-05-19T09:13:36;2.50;;;1.10;;
75550;SDS011;65071;53.082;18.218;2023-05-19T09:16:03;3.70;;;1.70;;
75550;SDS011;65071;53.082;18.218;2023-05-19T09:18:30;3.10;;;1.50;;
75550;SDS011;65071;53.082;18.218;2023-05-19T09:20:58;2.30;;;1.20;;
75550;SDS011;65071;53.082;18.218;2023-05-19T09:23:28;3.50;;;1.60;;
75550;SDS011;65071;53.082;18.218;2023-05-19T09:28:26;5.10;;;1.50;;
75550;SDS011;65071;53.082;18.218;2023-05-19T09:30:57;3.60;;;1.50;;
75550;SDS011;65071;53.082;18.218;2023-05-19T09:33:27;2.60;;;1.60;;
75550;SDS011;65071;53.082;18.218;2023-05-19T09:35:54;2.70;;;1.60;;
75550;SDS011;65071;53.082;18.218;2023-05-19T09:38:26;3.00;;;1.90;;
75550;SDS011;65071;53.082;18.218;2023-05-19T09:40:54;3.10;;;1.40;;
75550;SDS011;65071;53.082;18.218;2023-05-19T09:43:23;2.30;;;1.20;;
75550;SDS011;65071;53.082;18.218;2023-05-19T09:46:10;3.30;;;1.40;;
75550;SDS011;65071;53.082;18.218;2023-05-19T09:48:36;4.20;;;1.40;;
75550;SDS011;65071;53.082;18.218;2023-05-19T09:51:03;2.20;;;1.20;;
75550;SDS011;65071;53.082;18.218;2023-05-19T09:53:33;4.00;;;1.70;;
75550;SDS011;65071;53.082;18.218;2023-05-19T09:56:00;3.10;;;1.50;;
75550;SDS011;65071;53.082;18.218;2023-05-19T09:58:32;4.10;;;2.10;;
75550;SDS011;65071;53.082;18.218;2023-05-19T10:01:02;7.50;;;3.20;;
75550;SDS011;65071;53.082;18.218;2023-05-19T10:03:30;3.00;;;1.50;;
75550;SDS011;65071;53.082;18.218;2023-05-19T10:06:00;3.60;;;1.60;;
75550;SDS011;65071;53.082;18.218;2023-05-19T10:08:27;3.60;;;1.40;;
75550;SDS011;65071;53.082;18.218;2023-05-19T10:10:55;2.70;;;1.60;;
75550;SDS011;65071;53.082;18.218;2023-05-19T10:13:23;2.50;;;1.40;;
75550;SDS011;65071;53.082;18.218;2023-05-19T10:15:51;2.30;;;1.50;;
75550;SDS011;65071;53.082;18.218;2023-05-19T10:18:19;2.90;;;1.50;;
75550;SDS011;65071;53.082;18.218;2023-05-19T10:20:46;2.60;;;1.80;;
75550;SDS011;65071;53.082;18.218;2023-05-19T10:23:15;4.50;;;1.90;;
75550;SDS011;65071;53.082;18.218;2023-05-19T10:25:41;2.80;;;1.80;;
75550;SDS011;65071;53.082;18.218;2023-05-19T10:28:12;2.40;;;1.50;;
75550;SDS011;65071;53.082;18.218;2023-05-19T10:30:43;3.90;;;1.70;;
75550;SDS011;65071;53.082;18.218;2023-05-19T10:33:13;2.60;;;1.60;;
75550;SDS011;65071;53.082;18.218;2023-05-19T10:44:11;2.70;;;1.60;;
75550;SDS011;65071;53.082;18.218;2023-05-19T10:46:46;4.90;;;1.40;;
75550;SDS011;65071;53.082;18.218;2023-05-19T10:49:19;2.90;;;1.80;;
75550;SDS011;65071;53.082;18.218;2023-05-19T10:51:47;2.70;;;1.80;;
75550;SDS011;65071;53.082;18.218;2023-05-19T10:54:37;3.80;;;2.00;;
75550;SDS011;65071;53.082;18.218;2023-05-19T10:57:06;6.50;;;2.00;;
75550;SDS011;65071;53.082;18.218;2023-05-19T10:59:34;3.30;;;1.70;;
75550;SDS011;65071;53.082;18.218;2023-05-19T11:02:03;2.80;;;1.20;;
75550;SDS011;65071;53.082;18.218;2023-05-19T11:04:37;3.00;;;1.40;;
75550;SDS011;65071;53.082;18.218;2023-05-19T11:07:07;3.40;;;1.50;;
75550;SDS011;65071;53.082;18.218;2023-05-19T11:09:46;2.60;;;1.20;;
75550;SDS011;65071;53.082;18.218;2023-05-19T11:12:19;2.00;;;1.30;;
75550;SDS011;65071;53.082;18.218;2023-05-19T11:14:53;2.60;;;1.30;;
75550;SDS011;65071;53.082;18.218;2023-05-19T11:17:27;2.00;;;1.30;;
75550;SDS011;65071;53.082;18.218;2023-05-19T11:19:54;3.80;;;1.90;;
75550;SDS011;65071;53.082;18.218;2023-05-19T11:22:23;2.30;;;1.30;;
75550;SDS011;65071;53.082;18.218;2023-05-19T11:24:52;3.30;;;1.50;;
75550;SDS011;65071;53.082;18.218;2023-05-19T11:29:49;1.50;;;1.10;;
75550;SDS011;65071;53.082;18.218;2023-05-19T11:32:17;2.30;;;0.90;;
75550;SDS011;65071;53.082;18.218;2023-05-19T11:34:45;3.10;;;1.40;;
75550;SDS011;65071;53.082;18.218;2023-05-19T11:37:13;1.70;;;1.00;;
75550;SDS011;65071;53.082;18.218;2023-05-19T11:39:40;2.20;;;1.10;;
75550;SDS011;65071;53.082;18.218;2023-05-19T11:42:09;2.00;;;1.20;;
75550;SDS011;65071;53.082;18.218;2023-05-19T11:44:36;3.10;;;1.10;;
75550;SDS011;65071;53.082;18.218;2023-05-19T11:47:15;1.80;;;0.90;;
75550;SDS011;65071;53.082;18.218;2023-05-19T11:49:49;2.30;;;1.10;;
75550;SDS011;65071;53.082;18.218;2023-05-19T11:52:19;1.90;;;1.00;;
75550;SDS011;65071;53.082;18.218;2023-05-19T11:54:47;1.80;;;1.20;;
75550;SDS011;65071;53.082;18.218;2023-05-19T11:57:14;1.40;;;1.00;;
75550;SDS011;65071;53.082;18.218;2023-05-19T11:59:41;3.10;;;1.40;;
75550;SDS011;65071;53.082;18.218;2023-05-19T12:04:44;1.80;;;1.10;;
75550;SDS011;65071;53.082;18.218;2023-05-19T12:07:11;1.90;;;1.10;;
75550;SDS011;65071;53.082;18.218;2023-05-19T12:09:39;2.30;;;1.20;;
75550;SDS011;65071;53.082;18.218;2023-05-19T12:12:06;1.70;;;1.00;;
75550;SDS011;65071;53.082;18.218;2023-05-19T12:14:32;1.40;;;1.00;;
75550;SDS011;65071;53.082;18.218;2023-05-19T12:17:11;2.90;;;1.30;;
75550;SDS011;65071;53.082;18.218;2023-05-19T12:19:42;1.80;;;1.10;;
75550;SDS011;65071;53.082;18.218;2023-05-19T12:22:09;2.50;;;1.50;;
75550;SDS011;65071;53.082;18.218;2023-05-19T12:24:37;2.60;;;1.20;;
75550;SDS011;65071;53.082;18.218;2023-05-19T12:27:25;3.00;;;1.20;;
75550;SDS011;65071;53.082;18.218;2023-05-19T12:29:52;5.10;;;2.20;;
75550;SDS011;65071;53.082;18.218;2023-05-19T12:32:23;2.90;;;1.80;;
75550;SDS011;65071;53.082;18.218;2023-05-19T12:34:51;3.00;;;1.90;;
75550;SDS011;65071;53.082;18.218;2023-05-19T12:37:18;1.70;;;1.20;;
75550;SDS011;65071;53.082;18.218;2023-05-19T12:39:45;1.70;;;0.80;;
75550;SDS011;65071;53.082;18.218;2023-05-19T12:42:14;3.50;;;1.20;;
75550;SDS011;65071;53.082;18.218;2023-05-19T12:44:42;2.70;;;1.00;;
75550;SDS011;65071;53.082;18.218;2023-05-19T12:47:12;2.10;;;1.30;;
75550;SDS011;65071;53.082;18.218;2023-05-19T12:52:39;3.10;;;1.50;;
75550;SDS011;65071;53.082;18.218;2023-05-19T12:55:08;1.70;;;1.20;;
75550;SDS011;65071;53.082;18.218;2023-05-19T12:57:37;15.10;;;6.60;;
75550;SDS011;65071;53.082;18.218;2023-05-19T13:02:58;1.60;;;1.20;;
75550;SDS011;65071;53.082;18.218;2023-05-19T13:05:30;1.00;;;0.80;;
75550;SDS011;65071;53.082;18.218;2023-05-19T13:08:07;1.50;;;1.00;;
75550;SDS011;65071;53.082;18.218;2023-05-19T13:10:36;3.30;;;2.20;;
75550;SDS011;65071;53.082;18.218;2023-05-19T13:13:04;2.50;;;1.40;;
75550;SDS011;65071;53.082;18.218;2023-05-19T13:15:32;4.60;;;3.30;;
75550;SDS011;65071;53.082;18.218;2023-05-19T13:20:28;2.80;;;1.10;;
75550;SDS011;65071;53.082;18.218;2023-05-19T13:22:55;3.10;;;1.20;;
75550;SDS011;65071;53.082;18.218;2023-05-19T13:25:22;1.90;;;1.20;;
75550;SDS011;65071;53.082;18.218;2023-05-19T13:27:48;1.90;;;1.00;;
75550;SDS011;65071;53.082;18.218;2023-05-19T13:30:18;3.10;;;0.80;;
75550;SDS011;65071;53.082;18.218;2023-05-19T13:32:44;2.10;;;1.30;;
75550;SDS011;65071;53.082;18.218;2023-05-19T13:35:12;1.60;;;1.10;;
75550;SDS011;65071;53.082;18.218;2023-05-19T13:37:40;5.80;;;2.90;;
75550;SDS011;65071;53.082;18.218;2023-05-19T13:40:07;2.20;;;1.40;;
75550;SDS011;65071;53.082;18.218;2023-05-19T13:42:35;3.40;;;1.90;;
75550;SDS011;65071;53.082;18.218;2023-05-19T13:45:01;4.20;;;2.00;;
75550;SDS011;65071;53.082;18.218;2023-05-19T13:47:28;4.20;;;2.70;;
75550;SDS011;65071;53.082;18.218;2023-05-19T13:49:55;2.20;;;1.50;;
75550;SDS011;65071;53.082;18.218;2023-05-19T13:52:22;2.30;;;1.40;;
75550;SDS011;65071;53.082;18.218;2023-05-19T13:54:48;1.90;;;1.00;;
75550;SDS011;65071;53.082;18.218;2023-05-19T13:57:15;1.80;;;1.20;;
75550;SDS011;65071;53.082;18.218;2023-05-19T13:59:42;2.40;;;1.20;;
75550;SDS011;65071;53.082;18.218;2023-05-19T14:02:09;1.50;;;1.20;;
75550;SDS011;65071;53.082;18.218;2023-05-19T14:04:36;1.50;;;1.20;;
75550;SDS011;65071;53.082;18.218;2023-05-19T14:07:04;3.70;;;1.10;;
75550;SDS011;65071;53.082;18.218;2023-05-19T14:09:32;2.60;;;1.70;;
75550;SDS011;65071;53.082;18.218;2023-05-19T14:11:59;2.00;;;1.20;;
75550;SDS011;65071;53.082;18.218;2023-05-19T14:14:25;2.90;;;1.00;;
75550;SDS011;65071;53.082;18.218;2023-05-19T14:16:52;1.50;;;0.80;;
75550;SDS011;65071;53.082;18.218;2023-05-19T14:19:19;3.90;;;1.40;;
75550;SDS011;65071;53.082;18.218;2023-05-19T14:21:45;2.60;;;1.10;;
75550;SDS011;65071;53.082;18.218;2023-05-19T14:24:12;3.60;;;1.40;;
75550;SDS011;65071;53.082;18.218;2023-05-19T14:26:38;2.00;;;0.80;;
75550;SDS011;65071;53.082;18.218;2023-05-19T14:29:05;2.90;;;1.30;;
75550;SDS011;65071;53.082;18.218;2023-05-19T14:31:31;3.40;;;1.20;;
75550;SDS011;65071;53.082;18.218;2023-05-19T14:33:58;2.50;;;1.30;;
75550;SDS011;65071;53.082;18.218;2023-05-19T14:36:24;5.10;;;2.60;;
75550;SDS011;65071;53.082;18.218;2023-05-19T14:38:51;3.50;;;1.90;;
75550;SDS011;65071;53.082;18.218;2023-05-19T14:41:17;3.80;;;2.70;;
75550;SDS011;65071;53.082;18.218;2023-05-19T14:43:44;4.90;;;3.90;;
75550;SDS011;65071;53.082;18.218;2023-05-19T14:46:11;3.90;;;2.50;;
75550;SDS011;65071;53.082;18.218;2023-05-19T14:48:37;11.00;;;6.10;;
75550;SDS011;65071;53.082;18.218;2023-05-19T14:51:04;10.90;;;5.00;;
75550;SDS011;65071;53.082;18.218;2023-05-19T14:53:31;18.50;;;9.30;;
75550;SDS011;65071;53.082;18.218;2023-05-19T14:55:57;10.90;;;4.70;;
75550;SDS011;65071;53.082;18.218;2023-05-19T14:58:24;24.80;;;12.30;;
75550;SDS011;65071;53.082;18.218;2023-05-19T15:00:51;13.00;;;5.20;;
75550;SDS011;65071;53.082;18.218;2023-05-19T15:03:18;8.60;;;2.60;;
75550;SDS011;65071;53.082;18.218;2023-05-19T15:05:44;6.90;;;2.10;;
75550;SDS011;65071;53.082;18.218;2023-05-19T15:08:11;5.40;;;2.00;;
75550;SDS011;65071;53.082;18.218;2023-05-19T15:10:38;4.60;;;1.70;;
75550;SDS011;65071;53.082;18.218;2023-05-19T15:13:04;3.10;;;1.40;;
75550;SDS011;65071;53.082;18.218;2023-05-19T15:15:31;23.50;;;10.30;;
75550;SDS011;65071;53.082;18.218;2023-05-19T15:17:58;22.00;;;10.20;;
75550;SDS011;65071;53.082;18.218;2023-05-19T15:20:24;11.10;;;4.60;;
75550;SDS011;65071;53.082;18.218;2023-05-19T15:22:51;6.30;;;1.90;;
75550;SDS011;65071;53.082;18.218;2023-05-19T15:25:17;4.20;;;2.00;;
75550;SDS011;65071;53.082;18.218;2023-05-19T15:27:44;3.50;;;1.80;;
75550;SDS011;65071;53.082;18.218;2023-05-19T15:30:11;3.10;;;2.00;;
75550;SDS011;65071;53.082;18.218;2023-05-19T15:32:37;4.60;;;2.50;;
75550;SDS011;65071;53.082;18.218;2023-05-19T15:35:04;3.60;;;2.30;;
75550;SDS011;65071;53.082;18.218;2023-05-19T15:37:31;3.60;;;1.90;;
75550;SDS011;65071;53.082;18.218;2023-05-19T15:39:57;5.00;;;1.60;;
75550;SDS011;65071;53.082;18.218;2023-05-19T15:42:24;2.70;;;1.80;;
75550;SDS011;65071;53.082;18.218;2023-05-19T15:44:51;2.90;;;2.20;;
75550;SDS011;65071;53.082;18.218;2023-05-19T15:47:17;3.60;;;1.60;;
75550;SDS011;65071;53.082;18.218;2023-05-19T15:49:44;2.90;;;1.70;;
75550;SDS011;65071;53.082;18.218;2023-05-19T15:52:10;4.90;;;1.80;;